KAFF/AFF METAR and TAF weather

Enter ICAO airport designator
Station Type Date Time Source
KAFF METAR 2021/05/13 18:56 UTC NOAA

KAFF 131856Z AUTO 16011KT 10SM SCT120 16/03 A3019 RMK AO2 SLP179 T01580029


Station Type Date Time Source
KAFF Decoded METAR 2021/05/13 18:56 UTC NOAA

Air Force Academy, CO, United States (KAFF) 38-58N 104-49W 1999M
May 13, 2021 - 02:56 PM EDT / 2021.05.13 1856 UTC
Wind: from the SSE (160 degrees) at 13 MPH (11 KT):0
Visibility: 10 mile(s):0
Sky conditions: partly cloudy
Temperature: 60.4 F (15.8 C)
Dew Point: 37.2 F (2.9 C)
Relative Humidity: 41%
Pressure (altimeter): 30.19 in. Hg (1022 hPa)
ob: KAFF 131856Z AUTO 16011KT 10SM SCT120 16/03 A3019 RMK AO2 SLP179 T01580029
cycle: 19

Station Type Date Time Source
KAFF TAF 2021/05/13 19:09 UTC NOAA

TAF TAF KAFF 131900Z 1319/1501 16010G15KT 9999 FEW100 SCT120 BKN200 510009 QNH3015INS
BECMG 1320/1321 16012G20KT 9999 VCSH SCT120 BKN150 BKN200 520009 QNH3013INS DRY MICROBURST CONDS EXIST WND 140V030
TEMPO 1321/1322 VRB20G30KT
BECMG 1322/1323 01012G20KT 9999 VCSH SCT120 BKN150 BKN200 520009 QNH3013INS DRY MICROBURST CONDS EXIST WND 300V090
TEMPO 1323/1401 VRB20G30KT
BECMG 1401/1402 35009KT 9999 NSW SCT120 BKN250 QNH3014INS
BECMG 1409/1410 35009KT 9999 FEW250 QNH3013INS
BECMG 1415/1416 16009KT 9999 FEW060 FEW100 SCT250 QNH3008INS
BECMG 1419/1420 17012G20KT 9999 VCSH FEW085 BKN100 QNH3003INS
BECMG 1421/1422 VRB20G35KT 9999 VCTS SCT085CB BKN100 BKN250 QNH3003INS TX21/1322Z TN03/1413Z

Example: see airport list